Time;durP1;ratioP1;P1;durP2;ratioP2;P2;SDS_P1;SDS_P2;PMS_P1;PMS_P2;Temp;Humidity;BMP_temperature;BMP_pressure;BME280_temperature;BME280_humidity;BME280_pressure;Samples;Min_cycle;Max_cycle;Signal;HPM_P1;HPM_P2
2023/10/07 00:01:11;;;;;;;10.57;2.88;;;;;;;;;;5055660;28;20093;-89
2023/10/07 00:03:38;;;;;;;8.40;3.08;;;;;;;;;;5055779;28;20016;-89
2023/10/07 00:06:09;;;;;;;13.48;3.50;;;;;;;;;;5055322;28;20070;-89
2023/10/07 00:08:34;;;;;;;8.93;3.30;;;;;;;;;;5056639;28;20090;-89
2023/10/07 00:11:00;;;;;;;9.23;3.58;;;;;;;;;;5056893;28;20032;-88
2023/10/07 00:13:30;;;;;;;8.65;3.35;;;;;;;;;;5074737;28;20017;-89
2023/10/07 00:16:02;;;;;;;8.85;2.95;;;;;;;;;;5057475;28;20058;-89
2023/10/07 00:18:28;;;;;;;18.05;3.38;;;;;;;;;;5068923;28;20456;-89
2023/10/07 00:20:56;;;;;;;11.68;3.42;;;;;;;;;;5074748;28;20051;-89
2023/10/07 00:23:28;;;;;;;8.57;3.20;;;;;;;;;;5057333;28;20062;-89
2023/10/07 00:26:00;;;;;;;8.50;3.30;;;;;;;;;;5074324;28;20351;-89
2023/10/07 00:28:32;;;;;;;14.35;3.90;;;;;;;;;;5056381;28;20031;-90
2023/10/07 00:31:02;;;;;;;12.65;2.97;;;;;;;;;;5056424;28;20024;-89
2023/10/07 00:33:28;;;;;;;10.88;3.65;;;;;;;;;;5056570;28;20097;-90
2023/10/07 00:35:54;;;;;;;9.02;2.90;;;;;;;;;;5075540;28;20104;-89
2023/10/07 00:38:23;;;;;;;12.45;3.65;;;;;;;;;;5054040;28;20103;-90
2023/10/07 00:40:56;;;;;;;7.13;2.85;;;;;;;;;;5056065;28;20338;-89
2023/10/07 00:43:26;;;;;;;10.23;3.20;;;;;;;;;;5056020;28;20083;-89
2023/10/07 00:45:56;;;;;;;12.40;3.20;;;;;;;;;;5055326;28;20031;-90
2023/10/07 00:48:25;;;;;;;10.63;2.95;;;;;;;;;;5065927;28;20021;-90
2023/10/07 00:50:51;;;;;;;10.55;3.65;;;;;;;;;;5056427;28;20029;-89
2023/10/07 00:53:24;;;;;;;9.93;3.03;;;;;;;;;;5074047;28;20104;-90
2023/10/07 00:55:52;;;;;;;9.68;3.00;;;;;;;;;;5055641;28;20029;-90
2023/10/07 00:58:26;;;;;;;9.68;3.20;;;;;;;;;;5055438;28;20024;-89
2023/10/07 01:00:55;;;;;;;13.02;3.05;;;;;;;;;;5055093;28;20146;-90
2023/10/07 01:03:47;;;;;;;7.93;3.20;;;;;;;;;;5054501;28;20020;-89
2023/10/07 01:06:12;;;;;;;9.30;2.92;;;;;;;;;;5072083;28;20472;-89
2023/10/07 01:08:44;;;;;;;6.78;3.13;;;;;;;;;;5055362;28;20402;-90
2023/10/07 01:14:05;;;;;;;11.43;3.37;;;;;;;;;;5074010;28;20032;-89
2023/10/07 01:16:40;;;;;;;8.20;3.03;;;;;;;;;;5071758;28;20103;-89
2023/10/07 01:21:57;;;;;;;10.20;4.00;;;;;;;;;;5074383;28;20028;-89
2023/10/07 01:24:33;;;;;;;7.45;3.83;;;;;;;;;;5090405;28;20033;-89
2023/10/07 01:27:05;;;;;;;7.57;2.55;;;;;;;;;;5087643;28;20024;-88
2023/10/07 01:29:31;;;;;;;8.13;3.25;;;;;;;;;;5057198;28;20476;-90
2023/10/07 01:32:04;;;;;;;12.10;4.07;;;;;;;;;;5043316;28;20031;-89
2023/10/07 01:34:36;;;;;;;10.25;3.58;;;;;;;;;;5056698;28;20115;-89
2023/10/07 01:37:11;;;;;;;6.97;3.50;;;;;;;;;;5069928;28;20016;-89
2023/10/07 01:39:45;;;;;;;14.10;3.33;;;;;;;;;;5055327;28;20039;-89
2023/10/07 01:45:20;;;;;;;9.90;3.65;;;;;;;;;;4971985;28;20027;-89
2023/10/07 01:47:49;;;;;;;16.80;4.22;;;;;;;;;;5037869;28;20460;-89
2023/10/07 01:50:18;;;;;;;10.80;4.57;;;;;;;;;;5055037;28;20039;-90
2023/10/07 01:52:46;;;;;;;13.88;3.63;;;;;;;;;;5055108;28;20032;-89
2023/10/07 01:55:13;;;;;;;15.35;4.13;;;;;;;;;;5054639;28;20052;-89
2023/10/07 01:57:41;;;;;;;13.38;3.35;;;;;;;;;;5056827;28;20055;-88
2023/10/07 02:00:07;;;;;;;9.65;2.95;;;;;;;;;;5055747;28;20064;-89
2023/10/07 02:02:32;;;;;;;11.77;4.47;;;;;;;;;;5054469;28;20039;-91
2023/10/07 02:04:59;;;;;;;10.35;3.40;;;;;;;;;;5054649;28;20032;-89
2023/10/07 02:07:24;;;;;;;17.60;4.40;;;;;;;;;;5060732;28;20029;-90
2023/10/07 02:09:54;;;;;;;9.20;3.65;;;;;;;;;;5056944;28;20032;-89
2023/10/07 02:12:19;;;;;;;16.80;4.13;;;;;;;;;;5058374;28;20063;-89
2023/10/07 02:14:45;;;;;;;13.43;3.72;;;;;;;;;;5076437;28;20021;-89
2023/10/07 02:17:13;;;;;;;10.80;3.35;;;;;;;;;;5057909;28;20028;-89
2023/10/07 02:19:41;;;;;;;11.98;3.50;;;;;;;;;;5058386;28;20024;-90
2023/10/07 02:22:20;;;;;;;12.30;3.63;;;;;;;;;;5058616;28;20417;-89
2023/10/07 02:24:52;;;;;;;11.18;4.28;;;;;;;;;;5059272;28;20032;-89
2023/10/07 02:27:18;;;;;;;14.05;5.20;;;;;;;;;;5076115;28;20452;-89
2023/10/07 02:29:44;;;;;;;13.32;3.80;;;;;;;;;;5053665;28;20028;-89
2023/10/07 02:32:14;;;;;;;11.85;4.10;;;;;;;;;;5053264;28;20028;-89
2023/10/07 02:34:51;;;;;;;10.10;4.32;;;;;;;;;;5059070;28;20012;-89
2023/10/07 02:37:17;;;;;;;18.77;4.15;;;;;;;;;;5058840;28;20016;-89
2023/10/07 02:39:45;;;;;;;13.23;4.40;;;;;;;;;;5059416;28;20031;-89
2023/10/07 02:42:12;;;;;;;17.33;3.97;;;;;;;;;;5058333;28;20107;-89
2023/10/07 02:44:38;;;;;;;13.77;3.97;;;;;;;;;;5058622;28;20021;-89
2023/10/07 02:47:11;;;;;;;8.00;3.55;;;;;;;;;;5058286;28;20017;-89
2023/10/07 02:49:38;;;;;;;12.85;4.03;;;;;;;;;;5057736;28;20063;-89
2023/10/07 02:52:16;;;;;;;10.68;3.85;;;;;;;;;;5058149;28;20152;-89
2023/10/07 02:54:42;;;;;;;9.90;4.03;;;;;;;;;;5075598;28;20026;-91
2023/10/07 02:57:40;;;;;;;10.20;3.65;;;;;;;;;;5061294;28;20021;-89
2023/10/07 03:00:11;;;;;;;12.10;4.20;;;;;;;;;;5063625;28;20127;-90
2023/10/07 03:02:47;;;;;;;8.02;4.00;;;;;;;;;;5053052;28;20033;-89
2023/10/07 03:05:14;;;;;;;12.35;4.32;;;;;;;;;;5057168;28;20116;-90
2023/10/07 03:07:49;;;;;;;17.45;4.75;;;;;;;;;;5057371;28;20021;-90
2023/10/07 03:10:17;;;;;;;13.38;3.97;;;;;;;;;;5061625;28;20072;-90
2023/10/07 03:12:49;;;;;;;17.35;4.90;;;;;;;;;;5056694;28;20032;-90
2023/10/07 03:15:28;;;;;;;11.38;4.25;;;;;;;;;;5056675;28;20154;-88
2023/10/07 03:17:54;;;;;;;11.80;3.70;;;;;;;;;;5056833;28;20438;-90
2023/10/07 03:26:08;;;;;;;12.02;4.25;;;;;;;;;;5073407;28;20020;-90
2023/10/07 03:28:34;;;;;;;12.65;4.00;;;;;;;;;;5071696;28;20028;-90
2023/10/07 03:31:10;;;;;;;10.73;4.22;;;;;;;;;;5050984;28;20032;-90
2023/10/07 03:33:45;;;;;;;10.55;4.07;;;;;;;;;;5056535;28;20385;-90
2023/10/07 03:41:41;;;;;;;15.13;4.13;;;;;;;;;;5075836;28;20077;-89
2023/10/07 03:44:07;;;;;;;13.52;4.38;;;;;;;;;;5058965;28;20020;-90
2023/10/07 03:46:35;;;;;;;13.63;3.90;;;;;;;;;;5075486;28;20044;-89
2023/10/07 03:49:01;;;;;;;12.52;4.80;;;;;;;;;;5057789;28;20472;-90
2023/10/07 03:51:30;;;;;;;12.57;4.13;;;;;;;;;;5057150;28;20042;-89
2023/10/07 03:54:00;;;;;;;11.48;3.85;;;;;;;;;;5055326;28;20469;-89
2023/10/07 03:56:26;;;;;;;17.15;4.40;;;;;;;;;;5058589;28;20021;-89
2023/10/07 03:58:51;;;;;;;14.35;4.25;;;;;;;;;;5061531;28;20035;-90
2023/10/07 04:01:22;;;;;;;14.25;4.63;;;;;;;;;;5056631;28;20047;-89
2023/10/07 04:03:51;;;;;;;10.32;4.20;;;;;;;;;;5056413;28;20103;-90
2023/10/07 04:06:20;;;;;;;12.73;4.47;;;;;;;;;;5074187;28;20473;-89
2023/10/07 04:08:52;;;;;;;13.57;4.88;;;;;;;;;;5056590;28;20062;-90
2023/10/07 04:11:19;;;;;;;10.93;4.43;;;;;;;;;;5058213;28;20028;-90
2023/10/07 04:13:45;;;;;;;16.38;4.38;;;;;;;;;;5056147;28;20025;-89
2023/10/07 04:16:23;;;;;;;17.95;4.60;;;;;;;;;;5073237;28;20023;-90
2023/10/07 04:18:53;;;;;;;15.88;4.60;;;;;;;;;;5055313;28;20052;-89
2023/10/07 04:21:20;;;;;;;10.20;4.00;;;;;;;;;;5055376;28;20039;-89
2023/10/07 04:23:45;;;;;;;11.95;3.70;;;;;;;;;;5073826;28;20021;-88
2023/10/07 04:26:19;;;;;;;11.38;3.80;;;;;;;;;;5055875;28;20070;-89
2023/10/07 04:28:48;;;;;;;10.30;3.97;;;;;;;;;;5055739;28;20021;-90
2023/10/07 04:31:13;;;;;;;14.95;4.82;;;;;;;;;;5053551;28;20024;-89
2023/10/07 04:33:47;;;;;;;18.20;4.07;;;;;;;;;;5055869;28;20077;-90
2023/10/07 04:36:14;;;;;;;10.57;3.65;;;;;;;;;;5073357;28;20016;-90
2023/10/07 04:44:20;;;;;;;13.23;3.95;;;;;;;;;;5074140;28;20172;-89
2023/10/07 04:46:55;;;;;;;15.35;4.28;;;;;;;;;;5055225;28;20029;-89
2023/10/07 04:49:23;;;;;;;9.90;4.22;;;;;;;;;;5055838;28;20024;-89
2023/10/07 04:51:55;;;;;;;17.98;4.22;;;;;;;;;;5055465;28;20036;-89
2023/10/07 04:54:20;;;;;;;11.40;4.35;;;;;;;;;;5042563;28;20017;-89
2023/10/07 04:56:48;;;;;;;18.08;4.05;;;;;;;;;;5056076;28;20468;-89
2023/10/07 04:59:15;;;;;;;9.45;4.05;;;;;;;;;;5055828;28;20028;-89
2023/10/07 05:01:48;;;;;;;10.15;3.60;;;;;;;;;;5054803;28;20034;-88
2023/10/07 05:04:16;;;;;;;10.48;3.80;;;;;;;;;;5056381;28;20464;-89
2023/10/07 05:06:43;;;;;;;12.35;3.72;;;;;;;;;;5055923;28;20420;-90
2023/10/07 05:09:18;;;;;;;8.13;3.45;;;;;;;;;;5055502;28;20225;-89
2023/10/07 05:11:45;;;;;;;12.90;3.97;;;;;;;;;;5054870;28;20040;-89
2023/10/07 05:14:17;;;;;;;15.50;4.40;;;;;;;;;;5054415;28;20048;-89
2023/10/07 05:16:48;;;;;;;14.32;4.00;;;;;;;;;;5054229;28;20028;-89
2023/10/07 05:19:19;;;;;;;9.10;4.00;;;;;;;;;;5053686;28;20403;-89
2023/10/07 05:21:59;;;;;;;7.63;3.33;;;;;;;;;;5054615;28;20266;-89
2023/10/07 05:24:28;;;;;;;15.32;4.45;;;;;;;;;;5055610;28;20432;-89
2023/10/07 05:26:54;;;;;;;12.88;3.72;;;;;;;;;;5072687;28;20017;-89
2023/10/07 05:29:20;;;;;;;7.70;3.58;;;;;;;;;;5055580;28;20978;-90
2023/10/07 05:31:45;;;;;;;11.60;4.20;;;;;;;;;;5060361;28;20036;-89
2023/10/07 05:34:15;;;;;;;15.48;3.83;;;;;;;;;;5055158;28;20028;-89
2023/10/07 05:36:40;;;;;;;8.25;3.88;;;;;;;;;;5055411;28;20025;-90
2023/10/07 05:39:08;;;;;;;12.13;3.75;;;;;;;;;;5054951;28;20017;-89
2023/10/07 05:41:39;;;;;;;11.73;3.97;;;;;;;;;;5055188;28;20040;-89
2023/10/07 05:44:04;;;;;;;7.45;3.33;;;;;;;;;;5054712;28;20013;-89
2023/10/07 05:46:30;;;;;;;12.98;3.85;;;;;;;;;;5072819;28;20023;-89
2023/10/07 05:48:59;;;;;;;9.55;3.85;;;;;;;;;;5054819;28;20478;-89
2023/10/07 05:51:25;;;;;;;13.20;3.72;;;;;;;;;;5053999;28;20074;-89
2023/10/07 05:53:51;;;;;;;16.88;4.25;;;;;;;;;;5054452;28;20013;-89
2023/10/07 05:56:20;;;;;;;15.70;4.22;;;;;;;;;;5055519;28;20104;-89
2023/10/07 05:58:45;;;;;;;20.75;3.83;;;;;;;;;;5071989;28;20017;-89
2023/10/07 06:01:18;;;;;;;13.25;4.13;;;;;;;;;;5053490;28;20017;-90
2023/10/07 06:03:44;;;;;;;9.50;4.43;;;;;;;;;;5074281;28;20112;-90
2023/10/07 06:06:10;;;;;;;16.25;4.30;;;;;;;;;;5056567;28;20040;-89
2023/10/07 06:08:35;;;;;;;13.43;3.92;;;;;;;;;;5056587;28;20460;-89
2023/10/07 06:11:02;;;;;;;13.25;4.57;;;;;;;;;;5054946;28;20021;-89
2023/10/07 06:13:27;;;;;;;12.05;4.18;;;;;;;;;;5056390;28;20150;-88
2023/10/07 06:15:56;;;;;;;12.07;4.38;;;;;;;;;;5055868;28;20048;-89
2023/10/07 06:18:21;;;;;;;15.48;4.43;;;;;;;;;;5051043;28;20479;-89
2023/10/07 06:20:47;;;;;;;13.55;4.90;;;;;;;;;;5054189;28;20021;-90
2023/10/07 06:23:14;;;;;;;13.82;4.13;;;;;;;;;;5055353;28;20043;-89
2023/10/07 06:25:42;;;;;;;11.07;4.50;;;;;;;;;;5049782;28;20029;-89
2023/10/07 06:28:10;;;;;;;15.98;5.00;;;;;;;;;;5073208;28;20024;-90
2023/10/07 06:30:42;;;;;;;13.82;4.78;;;;;;;;;;5056756;28;20032;-89
2023/10/07 06:33:12;;;;;;;12.63;3.88;;;;;;;;;;5054792;28;20539;-90
2023/10/07 06:35:37;;;;;;;15.10;5.00;;;;;;;;;;5071826;28;20075;-90
2023/10/07 06:38:03;;;;;;;16.90;5.30;;;;;;;;;;5053975;28;20052;-90
2023/10/07 06:40:29;;;;;;;13.07;4.68;;;;;;;;;;5054408;28;20472;-90
2023/10/07 06:42:56;;;;;;;10.63;4.15;;;;;;;;;;5054462;28;20070;-90
2023/10/07 06:45:21;;;;;;;12.52;4.78;;;;;;;;;;5056225;28;20024;-91
2023/10/07 06:47:46;;;;;;;12.95;4.32;;;;;;;;;;5054595;28;20039;-90
2023/10/07 06:50:17;;;;;;;11.75;4.57;;;;;;;;;;5054555;28;20483;-90
2023/10/07 06:52:44;;;;;;;15.07;4.68;;;;;;;;;;5072436;28;20104;-90
2023/10/07 06:55:10;;;;;;;10.82;4.60;;;;;;;;;;5049275;28;20024;-90
2023/10/07 06:57:35;;;;;;;13.50;4.68;;;;;;;;;;5057620;28;20047;-91
2023/10/07 07:00:00;;;;;;;16.75;4.60;;;;;;;;;;5056915;28;20020;-91
2023/10/07 07:02:34;;;;;;;18.75;4.63;;;;;;;;;;5089376;28;20066;-90
2023/10/07 07:05:10;;;;;;;14.75;4.63;;;;;;;;;;5048536;28;20436;-91
2023/10/07 07:07:37;;;;;;;12.15;4.20;;;;;;;;;;5055071;28;20050;-90
2023/10/07 07:10:09;;;;;;;9.27;3.95;;;;;;;;;;5059876;28;20051;-90
2023/10/07 07:12:35;;;;;;;13.35;3.92;;;;;;;;;;5076924;28;20024;-90
2023/10/07 07:15:08;;;;;;;12.50;4.13;;;;;;;;;;5058876;28;20097;-90
2023/10/07 07:22:38;;;;;;;13.13;4.43;;;;;;;;;;5069190;28;20464;-91
2023/10/07 07:25:04;;;;;;;14.43;4.80;;;;;;;;;;5058308;28;20043;-91
2023/10/07 07:27:33;;;;;;;14.25;5.03;;;;;;;;;;5058197;28;20020;-92
2023/10/07 07:30:07;;;;;;;10.65;4.32;;;;;;;;;;5058453;28;20099;-91
2023/10/07 07:32:35;;;;;;;13.35;4.55;;;;;;;;;;5062389;28;20012;-91
2023/10/07 07:35:04;;;;;;;13.75;4.30;;;;;;;;;;5057203;28;20091;-91
2023/10/07 07:37:33;;;;;;;27.08;5.05;;;;;;;;;;5057737;28;20023;-91
2023/10/07 07:40:28;;;;;;;11.73;4.35;;;;;;;;;;5058269;28;20497;-91
2023/10/07 07:42:55;;;;;;;12.65;4.50;;;;;;;;;;5074168;28;20055;-92
2023/10/07 07:45:26;;;;;;;14.52;4.50;;;;;;;;;;5055823;28;20017;-92
2023/10/07 07:47:51;;;;;;;18.83;4.70;;;;;;;;;;5056510;28;20119;-91
2023/10/07 07:50:18;;;;;;;16.30;4.63;;;;;;;;;;5057452;28;20295;-91
2023/10/07 07:52:44;;;;;;;12.02;3.70;;;;;;;;;;5058306;28;20407;-92
2023/10/07 07:55:12;;;;;;;10.02;4.35;;;;;;;;;;5055156;28;20020;-91
2023/10/07 07:57:38;;;;;;;12.00;4.00;;;;;;;;;;5053387;28;20362;-94
2023/10/07 08:00:09;;;;;;;15.98;4.20;;;;;;;;;;5047044;28;20026;-94
2023/10/07 08:02:35;;;;;;;9.68;3.72;;;;;;;;;;5057013;28;20039;-94
2023/10/07 08:05:08;;;;;;;12.20;4.50;;;;;;;;;;5057332;28;20021;-91
2023/10/07 08:07:33;;;;;;;11.32;3.95;;;;;;;;;;5056786;28;20036;-94
2023/10/07 08:10:03;;;;;;;11.45;3.95;;;;;;;;;;5057510;28;20021;-93
2023/10/07 08:12:28;;;;;;;13.00;4.78;;;;;;;;;;5055257;28;20055;-94
2023/10/07 08:15:09;;;;;;;11.68;4.38;;;;;;;;;;5056689;28;20016;-94
2023/10/07 08:17:37;;;;;;;13.40;4.25;;;;;;;;;;5078827;28;20456;-93
2023/10/07 08:20:12;;;;;;;13.15;4.20;;;;;;;;;;5059063;28;20140;-93
2023/10/07 08:22:51;;;;;;;12.77;4.55;;;;;;;;;;5072180;28;20021;-93
2023/10/07 08:25:27;;;;;;;11.55;3.85;;;;;;;;;;5073894;28;20031;-94
2023/10/07 08:27:55;;;;;;;10.63;4.25;;;;;;;;;;5056937;28;20020;-94
2023/10/07 08:30:37;;;;;;;14.85;4.05;;;;;;;;;;5056754;28;20024;-93
2023/10/07 08:33:06;;;;;;;11.68;4.20;;;;;;;;;;5057097;28;20169;-94
2023/10/07 08:35:34;;;;;;;13.70;4.35;;;;;;;;;;5056903;28;20025;-93
2023/10/07 08:38:19;;;;;;;18.23;4.53;;;;;;;;;;5056420;28;20392;-94
2023/10/07 08:40:49;;;;;;;13.20;3.88;;;;;;;;;;5058810;28;20080;-93
2023/10/07 08:43:20;;;;;;;9.20;3.40;;;;;;;;;;5056766;28;20437;-93
2023/10/07 08:45:45;;;;;;;14.05;4.25;;;;;;;;;;5073840;28;20020;-94
2023/10/07 08:48:15;;;;;;;10.38;3.58;;;;;;;;;;5056880;28;20035;-93
2023/10/07 08:50:52;;;;;;;11.73;4.00;;;;;;;;;;5055796;28;20084;-93
2023/10/07 08:53:18;;;;;;;14.75;3.78;;;;;;;;;;5044374;28;20487;-94
2023/10/07 08:55:43;;;;;;;12.15;3.60;;;;;;;;;;5054161;28;20036;-94
2023/10/07 08:58:11;;;;;;;11.63;3.65;;;;;;;;;;5056231;28;20454;-94
2023/10/07 09:00:45;;;;;;;9.57;3.08;;;;;;;;;;5055681;28;20060;-93
2023/10/07 09:03:14;;;;;;;9.48;3.35;;;;;;;;;;5055394;28;20024;-93
2023/10/07 09:05:40;;;;;;;11.45;3.00;;;;;;;;;;5049902;28;20020;-93
2023/10/07 09:08:11;;;;;;;11.80;3.50;;;;;;;;;;5050917;28;20027;-93
2023/10/07 09:10:40;;;;;;;11.38;2.90;;;;;;;;;;5050308;28;20048;-93
2023/10/07 09:13:10;;;;;;;8.90;2.83;;;;;;;;;;5055509;28;20144;-94
2023/10/07 09:15:36;;;;;;;10.00;2.90;;;;;;;;;;5055525;28;20058;-94
2023/10/07 09:18:05;;;;;;;12.00;2.85;;;;;;;;;;5055168;28;20056;-94
2023/10/07 09:20:31;;;;;;;12.20;3.63;;;;;;;;;;5047771;28;20016;-94
2023/10/07 09:23:19;;;;;;;13.50;3.72;;;;;;;;;;5056533;28;20067;-94
2023/10/07 09:25:48;;;;;;;9.45;2.58;;;;;;;;;;5055638;28;20012;-94
2023/10/07 09:28:13;;;;;;;11.77;3.17;;;;;;;;;;5052937;28;20551;-94
2023/10/07 09:33:13;;;;;;;4.53;1.85;;;;;;;;;;5076152;28;20298;-94
2023/10/07 09:35:42;;;;;;;8.88;3.58;;;;;;;;;;5055964;28;20105;-94
2023/10/07 09:38:12;;;;;;;13.20;2.75;;;;;;;;;;5056375;28;20103;-94
2023/10/07 09:43:20;;;;;;;11.30;2.90;;;;;;;;;;5075848;28;20090;-94
2023/10/07 09:45:52;;;;;;;6.90;2.88;;;;;;;;;;5053929;28;20024;-94
2023/10/07 09:48:33;;;;;;;8.38;2.03;;;;;;;;;;5055601;28;20028;-95
2023/10/07 09:50:59;;;;;;;4.05;1.42;;;;;;;;;;5053002;28;20375;-94
2023/10/07 09:53:37;;;;;;;7.22;2.40;;;;;;;;;;5052339;28;20036;-94
2023/10/07 09:56:04;;;;;;;17.08;3.75;;;;;;;;;;5069480;28;20020;-94
2023/10/07 09:58:36;;;;;;;7.05;2.75;;;;;;;;;;5090842;28;20020;-94
2023/10/07 10:01:29;;;;;;;10.00;1.83;;;;;;;;;;5073287;28;20031;-94
2023/10/07 10:04:15;;;;;;;5.50;2.72;;;;;;;;;;5088894;28;20024;-95
2023/10/07 10:06:52;;;;;;;8.27;2.53;;;;;;;;;;5050020;28;20451;-94
2023/10/07 10:09:25;;;;;;;7.60;2.65;;;;;;;;;;5089180;28;20099;-94
2023/10/07 10:15:09;;;;;;;7.53;2.95;;;;;;;;;;5028409;28;20043;-94
2023/10/07 10:17:39;;;;;;;10.25;2.88;;;;;;;;;;5051278;28;20553;-95
2023/10/07 10:20:11;;;;;;;8.95;3.38;;;;;;;;;;5055549;28;20012;-93
2023/10/07 10:23:07;;;;;;;12.63;2.90;;;;;;;;;;5073321;28;20032;-94
2023/10/07 10:25:36;;;;;;;10.27;2.92;;;;;;;;;;5061892;28;20553;-93
2023/10/07 10:28:07;;;;;;;11.10;2.83;;;;;;;;;;5055378;28;20025;-93
2023/10/07 10:30:33;;;;;;;11.50;2.13;;;;;;;;;;5075599;28;20081;-94
2023/10/07 10:33:08;;;;;;;7.05;2.78;;;;;;;;;;5059386;28;20044;-93
2023/10/07 10:35:36;;;;;;;11.35;2.60;;;;;;;;;;5049849;28;20017;-95
2023/10/07 10:38:09;;;;;;;8.02;1.77;;;;;;;;;;5071495;28;20099;-94
2023/10/07 10:40:35;;;;;;;7.88;3.08;;;;;;;;;;5047213;28;20020;-95
2023/10/07 10:43:00;;;;;;;6.82;2.80;;;;;;;;;;5058428;28;20353;-94
2023/10/07 10:45:32;;;;;;;4.85;2.50;;;;;;;;;;5058696;28;20032;-94
2023/10/07 10:47:59;;;;;;;9.13;2.05;;;;;;;;;;5060043;28;20052;-94
2023/10/07 10:50:33;;;;;;;6.45;2.20;;;;;;;;;;5054561;28;20017;-94
2023/10/07 10:53:00;;;;;;;6.70;2.90;;;;;;;;;;5058681;28;20381;-93
2023/10/07 10:55:32;;;;;;;5.47;2.28;;;;;;;;;;5058735;28;20124;-95
2023/10/07 10:57:58;;;;;;;7.25;2.50;;;;;;;;;;5058245;28;20036;-94
2023/10/07 11:00:30;;;;;;;3.90;1.95;;;;;;;;;;5059041;28;20423;-94
2023/10/07 11:02:56;;;;;;;6.55;1.60;;;;;;;;;;5059088;28;20032;-94
2023/10/07 11:05:21;;;;;;;7.82;2.42;;;;;;;;;;5058564;28;20036;-95
2023/10/07 11:07:49;;;;;;;6.10;2.58;;;;;;;;;;5057964;28;20025;-94
2023/10/07 11:10:22;;;;;;;6.65;2.08;;;;;;;;;;5058401;28;20043;-93
2023/10/07 11:12:56;;;;;;;7.53;2.58;;;;;;;;;;5056659;28;20020;-93
2023/10/07 11:15:25;;;;;;;5.72;2.38;;;;;;;;;;5057708;28;20168;-93
2023/10/07 11:18:19;;;;;;;8.52;2.40;;;;;;;;;;5075670;28;20123;-93
2023/10/07 11:20:43;;;;;;;11.38;2.53;;;;;;;;;;5071036;28;20135;-93
2023/10/07 11:23:10;;;;;;;3.35;1.80;;;;;;;;;;5057888;28;20029;-94
2023/10/07 11:25:42;;;;;;;7.03;2.85;;;;;;;;;;5053874;28;20032;-94
2023/10/07 11:28:09;;;;;;;;;;;;;;;;;;5073650;28;20024;-94
2023/10/07 11:30:47;;;;;;;12.65;2.90;;;;;;;;;;5056214;28;19912;-94
2023/10/07 11:33:16;;;;;;;8.35;4.05;;;;;;;;;;5058172;28;20032;-94
2023/10/07 11:35:42;;;;;;;6.10;2.67;;;;;;;;;;5053797;28;20025;-94
2023/10/07 11:38:09;;;;;;;6.95;2.78;;;;;;;;;;5057159;28;20513;-94
2023/10/07 11:40:34;;;;;;;7.55;2.80;;;;;;;;;;5058435;28;20026;-93
2023/10/07 11:43:08;;;;;;;8.82;2.72;;;;;;;;;;5056935;28;20052;-94
2023/10/07 11:45:36;;;;;;;8.02;3.15;;;;;;;;;;5084088;28;21982;-94
2023/10/07 11:48:04;;;;;;;11.05;3.03;;;;;;;;;;5050441;28;20539;-94
2023/10/07 11:50:35;;;;;;;6.22;1.80;;;;;;;;;;5058458;28;20115;-94
2023/10/07 11:53:04;;;;;;;9.32;2.85;;;;;;;;;;5066061;28;20031;-95
2023/10/07 11:55:31;;;;;;;7.75;2.58;;;;;;;;;;5092409;28;20605;-94
2023/10/07 11:58:00;;;;;;;4.82;1.98;;;;;;;;;;5057788;28;20333;-94
2023/10/07 12:00:34;;;;;;;8.13;2.38;;;;;;;;;;5058669;28;20476;-94
2023/10/07 12:03:05;;;;;;;14.88;3.22;;;;;;;;;;5058142;28;20035;-95
2023/10/07 12:05:31;;;;;;;7.07;2.75;;;;;;;;;;5054649;28;20029;-94
2023/10/07 12:08:01;;;;;;;6.88;2.55;;;;;;;;;;5075868;28;20353;-94
2023/10/07 12:10:36;;;;;;;9.10;2.85;;;;;;;;;;5058168;28;20021;-93
2023/10/07 12:13:03;;;;;;;7.53;2.80;;;;;;;;;;5054034;28;20023;-95
2023/10/07 12:15:29;;;;;;;8.15;2.13;;;;;;;;;;5063750;28;20406;-93
2023/10/07 12:17:54;;;;;;;4.45;1.95;;;;;;;;;;5088847;28;20023;-94
2023/10/07 12:20:22;;;;;;;6.45;2.92;;;;;;;;;;5067275;28;20356;-95
2023/10/07 12:22:48;;;;;;;2.03;0.93;;;;;;;;;;5058450;28;20107;-95
2023/10/07 12:25:18;;;;;;;10.10;2.63;;;;;;;;;;5049935;28;20036;-95
2023/10/07 12:27:44;;;;;;;13.00;3.10;;;;;;;;;;5047712;28;20052;-94
2023/10/07 12:30:11;;;;;;;8.93;2.55;;;;;;;;;;5052862;28;20016;-94
2023/10/07 12:32:42;;;;;;;10.65;2.40;;;;;;;;;;5056455;28;20024;-94
2023/10/07 12:35:10;;;;;;;7.38;2.83;;;;;;;;;;5056961;28;20023;-95
2023/10/07 12:37:48;;;;;;;5.47;2.20;;;;;;;;;;5056313;28;20498;-95
2023/10/07 12:40:17;;;;;;;7.40;3.25;;;;;;;;;;5057044;28;20421;-95
2023/10/07 12:42:43;;;;;;;7.00;3.15;;;;;;;;;;5056727;28;20028;-95
2023/10/07 12:45:11;;;;;;;10.20;1.88;;;;;;;;;;5056357;28;20417;-93
2023/10/07 12:47:46;;;;;;;7.70;2.78;;;;;;;;;;5055382;28;20032;-94
2023/10/07 12:50:20;;;;;;;14.82;3.13;;;;;;;;;;5056802;28;20063;-94
2023/10/07 12:52:50;;;;;;;11.60;3.28;;;;;;;;;;5046072;28;20055;-94
2023/10/07 12:55:16;;;;;;;4.93;1.67;;;;;;;;;;5056633;28;20020;-94
2023/10/07 12:57:43;;;;;;;7.18;2.33;;;;;;;;;;5056493;28;20107;-93
2023/10/07 13:00:19;;;;;;;10.82;3.20;;;;;;;;;;5056488;28;20044;-94
2023/10/07 13:02:47;;;;;;;8.07;2.60;;;;;;;;;;5056283;28;20016;-96
2023/10/07 13:05:18;;;;;;;8.60;3.33;;;;;;;;;;5057262;28;20167;-95
2023/10/07 13:07:44;;;;;;;9.02;3.03;;;;;;;;;;5071511;28;20066;-94
2023/10/07 13:10:11;;;;;;;9.38;2.65;;;;;;;;;;5062873;28;20016;-95
2023/10/07 13:12:37;;;;;;;4.97;2.33;;;;;;;;;;5055919;28;20020;-94
2023/10/07 13:15:03;;;;;;;13.82;2.97;;;;;;;;;;5056242;28;20039;-95
2023/10/07 13:17:29;;;;;;;9.52;3.25;;;;;;;;;;5056757;28;20025;-94
2023/10/07 13:19:57;;;;;;;4.65;1.90;;;;;;;;;;5056431;28;20591;-95
2023/10/07 13:22:23;;;;;;;21.05;2.75;;;;;;;;;;5049913;28;20393;-94
2023/10/07 13:24:49;;;;;;;8.38;2.60;;;;;;;;;;5055922;28;20021;-95
2023/10/07 13:27:16;;;;;;;10.13;3.08;;;;;;;;;;5054137;28;20019;-95
2023/10/07 13:29:41;;;;;;;6.32;2.55;;;;;;;;;;5054983;28;20036;-94
2023/10/07 13:32:09;;;;;;;10.70;3.03;;;;;;;;;;5056297;28;20108;-95
2023/10/07 13:34:38;;;;;;;10.13;2.97;;;;;;;;;;5055937;28;20028;-94
2023/10/07 13:37:06;;;;;;;7.15;3.40;;;;;;;;;;5055968;28;20051;-95
2023/10/07 13:39:31;;;;;;;5.22;2.15;;;;;;;;;;5054745;28;20016;-95
2023/10/07 13:41:57;;;;;;;7.47;3.03;;;;;;;;;;5055658;28;20039;-95
2023/10/07 13:44:25;;;;;;;7.68;2.38;;;;;;;;;;5055502;28;20013;-95
2023/10/07 13:46:50;;;;;;;9.05;3.58;;;;;;;;;;5055252;28;20032;-95
2023/10/07 13:49:16;;;;;;;7.15;2.55;;;;;;;;;;5055463;28;20020;-94
2023/10/07 13:51:43;;;;;;;8.38;3.33;;;;;;;;;;5055884;28;20028;-95
2023/10/07 13:54:22;;;;;;;8.50;2.83;;;;;;;;;;5055682;28;20411;-94
2023/10/07 13:57:02;;;;;;;9.77;3.50;;;;;;;;;;5043732;28;20033;-95
2023/10/07 13:59:32;;;;;;;7.25;2.83;;;;;;;;;;5053243;28;20407;-95
2023/10/07 14:02:00;;;;;;;9.35;2.88;;;;;;;;;;5056400;28;20468;-95
2023/10/07 14:04:25;;;;;;;9.73;2.58;;;;;;;;;;5050915;28;20013;-95
2023/10/07 14:06:54;;;;;;;8.10;2.58;;;;;;;;;;5058016;28;20023;-96
2023/10/07 14:09:24;;;;;;;7.97;2.75;;;;;;;;;;5056142;28;20021;-96
2023/10/07 14:11:50;;;;;;;6.47;2.25;;;;;;;;;;5081460;28;20025;-96
2023/10/07 14:14:15;;;;;;;5.13;2.50;;;;;;;;;;5064784;28;20016;-96
2023/10/07 14:16:41;;;;;;;9.98;2.67;;;;;;;;;;5059538;28;20032;-96
2023/10/07 14:19:06;;;;;;;11.40;3.65;;;;;;;;;;5063256;28;20020;-95
2023/10/07 14:21:33;;;;;;;9.15;3.05;;;;;;;;;;5061005;28;20013;-95
2023/10/07 14:24:04;;;;;;;7.97;2.97;;;;;;;;;;5059953;28;20109;-96
2023/10/07 14:26:34;;;;;;;8.82;2.90;;;;;;;;;;5053917;28;20028;-96
2023/10/07 14:29:06;;;;;;;5.35;2.60;;;;;;;;;;5062560;28;20032;-96
2023/10/07 14:31:36;;;;;;;5.93;2.85;;;;;;;;;;5051965;28;20024;-95
2023/10/07 14:34:04;;;;;;;9.77;2.80;;;;;;;;;;5061077;28;20024;-96
2023/10/07 14:36:30;;;;;;;6.45;2.78;;;;;;;;;;5059340;28;20059;-94
2023/10/07 14:38:55;;;;;;;6.68;3.03;;;;;;;;;;5061204;28;20020;-95
2023/10/07 14:41:20;;;;;;;9.35;3.22;;;;;;;;;;5060790;28;20012;-96
2023/10/07 14:43:46;;;;;;;10.05;2.72;;;;;;;;;;5059996;28;20464;-94
2023/10/07 14:46:11;;;;;;;9.23;2.30;;;;;;;;;;5070507;28;20031;-96
2023/10/07 14:48:49;;;;;;;6.60;2.60;;;;;;;;;;5081782;28;20371;-93
2023/10/07 14:51:17;;;;;;;8.95;3.22;;;;;;;;;;5062622;28;20482;-95
2023/10/07 14:53:42;;;;;;;7.93;2.83;;;;;;;;;;5059573;28;20020;-95
2023/10/07 14:56:09;;;;;;;7.50;2.95;;;;;;;;;;5071504;28;20124;-92
2023/10/07 14:58:36;;;;;;;8.35;2.45;;;;;;;;;;5064215;28;20371;-95
2023/10/07 15:01:02;;;;;;;11.05;3.67;;;;;;;;;;5060471;28;20417;-90
2023/10/07 15:03:27;;;;;;;9.15;2.72;;;;;;;;;;5059950;28;20013;-91
2023/10/07 15:05:55;;;;;;;9.02;3.25;;;;;;;;;;5060542;28;20020;-91
2023/10/07 15:08:21;;;;;;;9.02;2.85;;;;;;;;;;5053971;28;20020;-91
2023/10/07 15:10:49;;;;;;;6.53;3.25;;;;;;;;;;5058894;28;20315;-90
2023/10/07 15:13:15;;;;;;;9.35;3.17;;;;;;;;;;5063523;28;20479;-89
2023/10/07 15:15:41;;;;;;;7.97;2.83;;;;;;;;;;5058699;28;20116;-90
2023/10/07 15:18:07;;;;;;;7.35;2.63;;;;;;;;;;5059687;28;20033;-90
2023/10/07 15:20:36;;;;;;;7.22;3.00;;;;;;;;;;5059433;28;20043;-91
2023/10/07 15:23:05;;;;;;;9.82;2.30;;;;;;;;;;5062804;28;20298;-92
2023/10/07 15:25:31;;;;;;;5.82;2.47;;;;;;;;;;5058198;28;20027;-92
2023/10/07 15:27:57;;;;;;;7.50;2.80;;;;;;;;;;5059673;28;20120;-92